Time;durP1;ratioP1;P1;durP2;ratioP2;P2;SDS_P1;SDS_P2;PMS_P1;PMS_P2;Temp;Humidity;BMP_temperature;BMP_pressure;BME280_temperature;BME280_humidity;BME280_pressure;Samples;Min_cycle;Max_cycle;Signal;HPM_P1;HPM_P2
2022/10/15 00:00:42;;;;;;;;;;;;;;;;;;5113935;27;19927;-57
2022/10/15 00:03:07;;;;;;;;;;;;;;;;;;5113312;27;20010;-57
2022/10/15 00:05:32;;;;;;;;;;;;;;;;;;5121999;27;20005;-57
2022/10/15 00:07:57;;;;;;;;;;;;;;;;;;5119159;27;20349;-57
2022/10/15 00:10:22;;;;;;;;;;;;;;;;;;5113321;27;19920;-57
2022/10/15 00:12:47;;;;;;;;;;;;;;;;;;5119335;27;19922;-57
2022/10/15 00:15:12;;;;;;;;;;;;;;;;;;5118923;27;19915;-57
2022/10/15 00:17:37;;;;;;;;;;;;;;;;;;5124587;27;20286;-57
2022/10/15 00:20:02;;;;;;;;;;;;;;;;;;5129896;27;19916;-57
2022/10/15 00:22:27;;;;;;;;;;;;;;;;;;5123569;27;20434;-57
2022/10/15 00:24:53;;;;;;;;;;;;;;;;;;5120452;27;19912;-57
2022/10/15 00:27:18;;;;;;;;;;;;;;;;;;5133220;27;19912;-57
2022/10/15 00:29:43;;;;;;;;;;;;;;;;;;5117440;27;19920;-57
2022/10/15 00:32:08;;;;;;;;;;;;;;;;;;5128340;27;20010;-57
2022/10/15 00:34:33;;;;;;;;;;;;;;;;;;5115677;27;19920;-57
2022/10/15 00:36:58;;;;;;;;;;;;;;;;;;5130907;27;19925;-58
2022/10/15 00:39:23;;;;;;;;;;;;;;;;;;5125964;27;19997;-58
2022/10/15 00:41:48;;;;;;;;;;;;;;;;;;5113114;27;19919;-56
2022/10/15 00:44:13;;;;;;;;;;;;;;;;;;5114658;27;19918;-57
2022/10/15 00:46:38;;;;;;;;;;;;;;;;;;5111766;27;19969;-57
2022/10/15 00:49:03;;;;;;;;;;;;;;;;;;5113047;28;19937;-57
2022/10/15 00:51:29;;;;;;;;;;;;;;;;;;5112612;27;19927;-56
2022/10/15 00:53:54;;;;;;;;;;;;;;;;;;5115888;27;19908;-56
2022/10/15 00:56:19;;;;;;;;;;;;;;;;;;5129915;27;20393;-56
2022/10/15 00:58:45;;;;;;;;;;;;;;;;;;5128568;27;19923;-56
2022/10/15 01:01:10;;;;;;;;;;;;;;;;;;5119015;27;20057;-56
2022/10/15 01:03:35;;;;;;;;;;;;;;;;;;5112078;27;19912;-57
2022/10/15 01:06:00;;;;;;;;;;;;;;;;;;5115867;27;19912;-57
2022/10/15 01:08:25;;;;;;;;;;;;;;;;;;5116609;27;19908;-57
2022/10/15 01:10:50;;;;;;;;;;;;;;;;;;5120979;27;21276;-56
2022/10/15 01:13:15;;;;;;;;;;;;;;;;;;5117227;27;19912;-57
2022/10/15 01:15:40;;;;;;;;;;;;;;;;;;5110205;27;19924;-56
2022/10/15 01:18:05;;;;;;;;;;;;;;;;;;5122425;27;19916;-57
2022/10/15 01:20:31;;;;;;;;;;;;;;;;;;5112513;28;19919;-56
2022/10/15 01:22:56;;;;;;;;;;;;;;;;;;5113054;27;19912;-58
2022/10/15 01:25:21;;;;;;;;;;;;;;;;;;5111828;28;19912;-58
2022/10/15 01:27:46;;;;;;;;;;;;;;;;;;5112605;28;20393;-58
2022/10/15 01:30:11;;;;;;;;;;;;;;;;;;5112149;28;19920;-57
2022/10/15 01:32:36;;;;;;;;;;;;;;;;;;5111678;27;19907;-58
2022/10/15 01:35:01;;;;;;;;;;;;;;;;;;5112366;27;19920;-57
2022/10/15 01:37:26;;;;;;;;;;;;;;;;;;5111754;28;19915;-58
2022/10/15 01:39:51;;;;;;;;;;;;;;;;;;5116408;27;19994;-57
2022/10/15 01:42:16;;;;;;;;;;;;;;;;;;5132329;27;19908;-57
2022/10/15 01:44:41;;;;;;;;;;;;;;;;;;5118800;27;20286;-58
2022/10/15 01:47:06;;;;;;;;;;;;;;;;;;5110639;28;20258;-57
2022/10/15 01:49:31;;;;;;;;;;;;;;;;;;5128814;27;19919;-57
2022/10/15 01:51:57;;;;;;;;;;;;;;;;;;5130313;27;19916;-57
2022/10/15 01:54:22;;;;;;;;;;;;;;;;;;5115449;27;19916;-57
2022/10/15 01:56:48;;;;;;;;;;;;;;;;;;5111098;28;19962;-56
2022/10/15 01:59:13;;;;;;;;;;;;;;;;;;5111278;28;19914;-57
2022/10/15 02:01:38;;;;;;;;;;;;;;;;;;5111236;28;19908;-57
2022/10/15 02:04:03;;;;;;;;;;;;;;;;;;5111384;28;19912;-57
2022/10/15 02:06:28;;;;;;;;;;;;;;;;;;5118409;27;20378;-57
2022/10/15 02:08:54;;;;;;;;;;;;;;;;;;5131793;27;19946;-57
2022/10/15 02:11:19;;;;;;;;;;;;;;;;;;5125464;27;19912;-57
2022/10/15 02:13:44;;;;;;;;;;;;;;;;;;5118328;27;19919;-57
2022/10/15 02:16:09;;;;;;;;;;;;;;;;;;5131918;27;20005;-56
2022/10/15 02:18:34;;;;;;;;;;;;;;;;;;5123151;27;20270;-56
2022/10/15 02:20:59;;;;;;;;;;;;;;;;;;5116324;27;19957;-57
2022/10/15 02:23:25;;;;;;;;;;;;;;;;;;5111098;27;19919;-57
2022/10/15 02:25:51;;;;;;;;;;;;;;;;;;5114321;27;20409;-57
2022/10/15 02:28:16;;;;;;;;;;;;;;;;;;5114364;27;20341;-57
2022/10/15 02:30:41;;;;;;;;;;;;;;;;;;5114531;27;19931;-56
2022/10/15 02:33:06;;;;;;;;;;;;;;;;;;5131722;27;19907;-56
2022/10/15 02:35:31;;;;;;;;;;;;;;;;;;5112527;28;19974;-57
2022/10/15 02:37:56;;;;;;;;;;;;;;;;;;5111062;28;19911;-57
2022/10/15 02:40:21;;;;;;;;;;;;;;;;;;5110289;28;19919;-55
2022/10/15 02:42:46;;;;;;;;;;;;;;;;;;5110891;28;20385;-55
2022/10/15 02:45:11;;;;;;;;;;;;;;;;;;5121821;28;20006;-57
2022/10/15 02:47:36;;;;;;;;;;;;;;;;;;5111767;28;19912;-57
2022/10/15 02:50:02;;;;;;;;;;;;;;;;;;5119951;28;20287;-57
2022/10/15 02:52:27;;;;;;;;;;;;;;;;;;5111853;28;19919;-58
2022/10/15 02:54:52;;;;;;;;;;;;;;;;;;5110083;28;20409;-57
2022/10/15 02:57:17;;;;;;;;;;;;;;;;;;5119579;27;19927;-58
2022/10/15 02:59:42;;;;;;;;;;;;;;;;;;5116201;27;19916;-56
2022/10/15 03:02:07;;;;;;;;;;;;;;;;;;5114998;28;19975;-56
2022/10/15 03:04:32;;;;;;;;;;;;;;;;;;5114627;28;19963;-57
2022/10/15 03:06:57;;;;;;;;;;;;;;;;;;5114680;28;20282;-57
2022/10/15 03:09:22;;;;;;;;;;;;;;;;;;5124956;27;19922;-58
2022/10/15 03:11:47;;;;;;;;;;;;;;;;;;5132023;27;19964;-57
2022/10/15 03:14:12;;;;;;;;;;;;;;;;;;5125847;27;19961;-56
2022/10/15 03:16:37;;;;;;;;;;;;;;;;;;5119504;27;19916;-56
2022/10/15 03:19:03;;;;;;;;;;;;;;;;;;5113162;27;20002;-56
2022/10/15 03:21:29;;;;;;;;;;;;;;;;;;5122289;27;19919;-56
2022/10/15 03:23:54;;;;;;;;;;;;;;;;;;5120443;27;19955;-57
2022/10/15 03:26:20;;;;;;;;;;;;;;;;;;5124552;27;19940;-56
2022/10/15 03:28:45;;;;;;;;;;;;;;;;;;5114247;28;19912;-56
2022/10/15 03:31:12;;;;;;;;;;;;;;;;;;5114922;27;19981;-56
2022/10/15 03:33:37;;;;;;;;;;;;;;;;;;5116867;27;20282;-56
2022/10/15 03:36:02;;;;;;;;;;;;;;;;;;5114713;28;20281;-58
2022/10/15 03:38:27;;;;;;;;;;;;;;;;;;5119550;27;19912;-58
2022/10/15 03:40:52;;;;;;;;;;;;;;;;;;5127156;27;20010;-57
2022/10/15 03:43:17;;;;;;;;;;;;;;;;;;5111261;27;19952;-57
2022/10/15 03:45:42;;;;;;;;;;;;;;;;;;5111646;27;20282;-58
2022/10/15 03:48:07;;;;;;;;;;;;;;;;;;5110431;27;19919;-58
2022/10/15 03:50:33;;;;;;;;;;;;;;;;;;5113903;27;20336;-57
2022/10/15 03:52:58;;;;;;;;;;;;;;;;;;5118209;27;19919;-57
2022/10/15 03:55:23;;;;;;;;;;;;;;;;;;5133129;27;20258;-57
2022/10/15 03:57:48;;;;;;;;;;;;;;;;;;5124836;27;19927;-58
2022/10/15 04:00:13;;;;;;;;;;;;;;;;;;5119752;27;19923;-58
2022/10/15 04:02:38;;;;;;;;;;;;;;;;;;5128129;27;19981;-60
2022/10/15 04:05:03;;;;;;;;;;;;;;;;;;5116644;27;19954;-58
2022/10/15 04:07:28;;;;;;;;;;;;;;;;;;5131339;27;19922;-59
2022/10/15 04:09:53;;;;;;;;;;;;;;;;;;5119565;27;19918;-57
2022/10/15 04:12:18;;;;;;;;;;;;;;;;;;5111083;27;19920;-58
2022/10/15 04:14:43;;;;;;;;;;;;;;;;;;5125920;27;19916;-58
2022/10/15 04:17:08;;;;;;;;;;;;;;;;;;5134103;27;20342;-59
2022/10/15 04:19:33;;;;;;;;;;;;;;;;;;5134676;27;19908;-58
2022/10/15 04:21:59;;;;;;;;;;;;;;;;;;5134422;27;19952;-59
2022/10/15 04:24:24;;;;;;;;;;;;;;;;;;5134462;27;19908;-59
2022/10/15 04:26:49;;;;;;;;;;;;;;;;;;5134560;27;19951;-58
2022/10/15 04:29:14;;;;;;;;;;;;;;;;;;5134014;27;19918;-59
2022/10/15 04:31:39;;;;;;;;;;;;;;;;;;5134185;27;19928;-58
2022/10/15 04:34:04;;;;;;;;;;;;;;;;;;5134102;27;19951;-58
2022/10/15 04:36:29;;;;;;;;;;;;;;;;;;5134084;27;19911;-58
2022/10/15 04:38:54;;;;;;;;;;;;;;;;;;5134028;27;19914;-58
2022/10/15 04:41:19;;;;;;;;;;;;;;;;;;5134390;27;19914;-58
2022/10/15 04:43:44;;;;;;;;;;;;;;;;;;5133906;27;19952;-57
2022/10/15 04:46:09;;;;;;;;;;;;;;;;;;5134129;27;20239;-58
2022/10/15 04:48:34;;;;;;;;;;;;;;;;;;5133361;27;19912;-57
2022/10/15 04:50:59;;;;;;;;;;;;;;;;;;5133913;27;19907;-58
2022/10/15 04:53:25;;;;;;;;;;;;;;;;;;5133504;27;19912;-58
2022/10/15 04:55:50;;;;;;;;;;;;;;;;;;5133569;27;19911;-57
2022/10/15 04:58:15;;;;;;;;;;;;;;;;;;5133364;27;19954;-58
2022/10/15 05:00:40;;;;;;;;;;;;;;;;;;5133616;27;19907;-58
2022/10/15 05:03:05;;;;;;;;;;;;;;;;;;5133441;27;20010;-58
2022/10/15 05:05:30;;;;;;;;;;;;;;;;;;5133863;27;20006;-59
2022/10/15 05:07:55;;;;;;;;;;;;;;;;;;5133559;27;19954;-57
2022/10/15 05:10:20;;;;;;;;;;;;;;;;;;5133575;27;19994;-57
2022/10/15 05:12:45;;;;;;;;;;;;;;;;;;5133318;27;19914;-57
2022/10/15 05:15:10;;;;;;;;;;;;;;;;;;5133293;27;19919;-57
2022/10/15 05:17:35;;;;;;;;;;;;;;;;;;5133389;27;19915;-59
2022/10/15 05:20:01;;;;;;;;;;;;;;;;;;5133466;27;20411;-58
2022/10/15 05:22:26;;;;;;;;;;;;;;;;;;5132351;27;19908;-58
2022/10/15 05:24:51;;;;;;;;;;;;;;;;;;5133599;27;19911;-59
2022/10/15 05:27:16;;;;;;;;;;;;;;;;;;5133129;27;19915;-58
2022/10/15 05:29:41;;;;;;;;;;;;;;;;;;5130910;27;20825;-59
2022/10/15 05:32:06;;;;;;;;;;;;;;;;;;5133129;27;19907;-59
2022/10/15 05:34:32;;;;;;;;;;;;;;;;;;5133498;27;19918;-60
2022/10/15 05:36:57;;;;;;;;;;;;;;;;;;5133513;27;19911;-59
2022/10/15 05:39:22;;;;;;;;;;;;;;;;;;5133003;27;19915;-59
2022/10/15 05:41:48;;;;;;;;;;;;;;;;;;5133443;27;19907;-58
2022/10/15 05:44:13;;;;;;;;;;;;;;;;;;5133131;27;19908;-57
2022/10/15 05:46:38;;;;;;;;;;;;;;;;;;5133327;27;20375;-58
2022/10/15 05:49:03;;;;;;;;;;;;;;;;;;5132302;27;19918;-58
2022/10/15 05:51:28;;;;;;;;;;;;;;;;;;5133337;27;19907;-59
2022/10/15 05:53:53;;;;;;;;;;;;;;;;;;5133136;27;19990;-59
2022/10/15 05:56:18;;;;;;;;;;;;;;;;;;5132958;27;20006;-59
2022/10/15 05:58:44;;;;;;;;;;;;;;;;;;5132974;27;20362;-58
2022/10/15 06:01:09;;;;;;;;;;;;;;;;;;5132797;27;19908;-59
2022/10/15 06:03:34;;;;;;;;;;;;;;;;;;5132882;27;19911;-59
2022/10/15 06:05:59;;;;;;;;;;;;;;;;;;5133194;27;20350;-59
2022/10/15 06:08:24;;;;;;;;;;;;;;;;;;5132551;27;19908;-59
2022/10/15 06:10:49;;;;;;;;;;;;;;;;;;5133014;27;19908;-59
2022/10/15 06:13:14;;;;;;;;;;;;;;;;;;5132647;27;19908;-58
2022/10/15 06:15:39;;;;;;;;;;;;;;;;;;5132739;27;19912;-59
2022/10/15 06:18:04;;;;;;;;;;;;;;;;;;5132463;27;20062;-59
2022/10/15 06:20:29;;;;;;;;;;;;;;;;;;5132731;27;19954;-59
2022/10/15 06:22:55;;;;;;;;;;;;;;;;;;5132804;27;19914;-58
2022/10/15 06:25:20;;;;;;;;;;;;;;;;;;5132367;27;19908;-58
2022/10/15 06:27:45;;;;;;;;;;;;;;;;;;5132471;27;20350;-58
2022/10/15 06:30:10;;;;;;;;;;;;;;;;;;5132117;27;20013;-59
2022/10/15 06:32:35;;;;;;;;;;;;;;;;;;5131951;27;19932;-58
2022/10/15 06:35:00;;;;;;;;;;;;;;;;;;5132447;27;19907;-59
2022/10/15 06:37:25;;;;;;;;;;;;;;;;;;5132173;27;19912;-58
2022/10/15 06:39:50;;;;;;;;;;;;;;;;;;5132239;28;19907;-58
2022/10/15 06:42:15;;;;;;;;;;;;;;;;;;5132140;28;19915;-59
2022/10/15 06:44:40;;;;;;;;;;;;;;;;;;5132195;28;20377;-59
2022/10/15 06:47:06;;;;;;;;;;;;;;;;;;5132070;28;19907;-60
2022/10/15 06:49:31;;;;;;;;;;;;;;;;;;5132677;28;19918;-60
2022/10/15 06:51:56;;;;;;;;;;;;;;;;;;5132502;28;19907;-59
2022/10/15 06:54:21;;;;;;;;;;;;;;;;;;5132171;28;19907;-59
2022/10/15 06:56:46;;;;;;;;;;;;;;;;;;5132218;28;19912;-58
2022/10/15 06:59:11;;;;;;;;;;;;;;;;;;5132165;28;19911;-58
2022/10/15 07:01:36;;;;;;;;;;;;;;;;;;5132028;28;19908;-58
2022/10/15 07:04:01;;;;;;;;;;;;;;;;;;5132085;28;20010;-59
2022/10/15 07:06:26;;;;;;;;;;;;;;;;;;5132490;28;20002;-59
2022/10/15 07:08:52;;;;;;;;;;;;;;;;;;5131675;28;20377;-58
2022/10/15 07:11:17;;;;;;;;;;;;;;;;;;5131961;28;19915;-58
2022/10/15 07:13:43;;;;;;;;;;;;;;;;;;5132345;28;20315;-59
2022/10/15 07:16:08;;;;;;;;;;;;;;;;;;5131985;28;20453;-59
2022/10/15 07:18:33;;;;;;;;;;;;;;;;;;5131742;28;19922;-59
2022/10/15 07:20:58;;;;;;;;;;;;;;;;;;5131895;28;20114;-58
2022/10/15 07:23:23;;;;;;;;;;;;;;;;;;5131867;28;19935;-58
2022/10/15 07:25:48;;;;;;;;;;;;;;;;;;5132224;28;19907;-58
2022/10/15 07:28:13;;;;;;;;;;;;;;;;;;5131975;28;20373;-58
2022/10/15 07:30:38;;;;;;;;;;;;;;;;;;5131498;28;19923;-58
2022/10/15 07:33:03;;;;;;;;;;;;;;;;;;5131708;28;19965;-58
2022/10/15 07:35:29;;;;;;;;;;;;;;;;;;5131829;28;19951;-59
2022/10/15 07:37:54;;;;;;;;;;;;;;;;;;5132098;28;19929;-59
2022/10/15 07:40:19;;;;;;;;;;;;;;;;;;5131723;28;19919;-58
2022/10/15 07:42:44;;;;;;;;;;;;;;;;;;5131749;28;20413;-59
2022/10/15 07:45:09;;;;;;;;;;;;;;;;;;5132776;27;19907;-59
2022/10/15 07:47:34;;;;;;;;;;;;;;;;;;5135334;27;19908;-58
2022/10/15 07:49:59;;;;;;;;;;;;;;;;;;5135277;27;20356;-58
2022/10/15 07:52:24;;;;;;;;;;;;;;;;;;5134809;27;20013;-58
2022/10/15 07:54:49;;;;;;;;;;;;;;;;;;5135667;27;20007;-58
2022/10/15 07:57:15;;;;;;;;;;;;;;;;;;5135307;27;19911;-58
2022/10/15 07:59:40;;;;;;;;;;;;;;;;;;5134598;27;19908;-59
2022/10/15 08:02:05;;;;;;;;;;;;;;;;;;5134985;27;20362;-59
2022/10/15 08:04:30;;;;;;;;;;;;;;;;;;5135087;27;19961;-58
2022/10/15 08:06:55;;;;;;;;;;;;;;;;;;5135192;27;19992;-58
2022/10/15 08:09:20;;;;;;;;;;;;;;;;;;5134736;27;20400;-58
2022/10/15 08:11:45;;;;;;;;;;;;;;;;;;5134902;27;20250;-57
2022/10/15 08:14:10;;;;;;;;;;;;;;;;;;5135061;27;19914;-58
2022/10/15 08:16:35;;;;;;;;;;;;;;;;;;5134866;27;19968;-58
2022/10/15 08:19:00;;;;;;;;;;;;;;;;;;5134681;27;20005;-58
2022/10/15 08:21:25;;;;;;;;;;;;;;;;;;5134755;27;19908;-59
2022/10/15 08:23:51;;;;;;;;;;;;;;;;;;5134797;27;19914;-58
2022/10/15 08:26:16;;;;;;;;;;;;;;;;;;5134874;27;19946;-58
2022/10/15 08:28:41;;;;;;;;;;;;;;;;;;5134801;27;19915;-57
2022/10/15 08:31:06;;;;;;;;;;;;;;;;;;5134152;27;19919;-57
2022/10/15 08:33:31;;;;;;;;;;;;;;;;;;5134326;27;19907;-58
2022/10/15 08:35:56;;;;;;;;;;;;;;;;;;5134722;27;19911;-58
2022/10/15 08:38:21;;;;;;;;;;;;;;;;;;5134322;27;19911;-59
2022/10/15 08:40:46;;;;;;;;;;;;;;;;;;5134367;27;19907;-58
2022/10/15 08:43:11;;;;;;;;;;;;;;;;;;5134525;27;20362;-58
2022/10/15 08:45:36;;;;;;;;;;;;;;;;;;5134186;27;20247;-58
2022/10/15 08:48:02;;;;;;;;;;;;;;;;;;5134299;27;19926;-58
2022/10/15 08:50:27;;;;;;;;;;;;;;;;;;5131796;27;19907;-59
2022/10/15 08:52:53;;;;;;;;;;;;;;;;;;5134277;27;19927;-58
2022/10/15 08:55:18;;;;;;;;;;;;;;;;;;5133839;27;19911;-58
2022/10/15 08:57:43;;;;;;;;;;;;;;;;;;5133956;27;19994;-58
2022/10/15 09:00:08;;;;;;;;;;;;;;;;;;5133860;27;20320;-59
2022/10/15 09:02:34;;;;;;;;;;;;;;;;;;5133833;27;19925;-58
2022/10/15 09:04:59;;;;;;;;;;;;;;;;;;5133902;27;20303;-58
2022/10/15 09:07:24;;;;;;;;;;;;;;;;;;5133685;27;19953;-58
2022/10/15 09:09:50;;;;;;;;;;;;;;;;;;5133948;27;20258;-58
2022/10/15 09:12:15;;;;;;;;;;;;;;;;;;5133753;27;19957;-58
2022/10/15 09:14:40;;;;;;;;;;;;;;;;;;5133590;27;20397;-59
2022/10/15 09:17:05;;;;;;;;;;;;;;;;;;5133654;27;19956;-58
2022/10/15 09:19:30;;;;;;;;;;;;;;;;;;5132798;27;19911;-58
2022/10/15 09:21:55;;;;;;;;;;;;;;;;;;5132065;27;19914;-59
2022/10/15 09:24:20;;;;;;;;;;;;;;;;;;5133432;27;19911;-59
2022/10/15 09:26:45;;;;;;;;;;;;;;;;;;5133480;27;19947;-59
2022/10/15 09:29:11;;;;;;;;;;;;;;;;;;5133698;27;19912;-58
2022/10/15 09:31:36;;;;;;;;;;;;;;;;;;5133144;27;20393;-58
2022/10/15 09:34:01;;;;;;;;;;;;;;;;;;5133534;27;19912;-58
2022/10/15 09:36:26;;;;;;;;;;;;;;;;;;5133179;27;19919;-58
2022/10/15 09:38:51;;;;;;;;;;;;;;;;;;5133640;27;20003;-58
2022/10/15 09:41:16;;;;;;;;;;;;;;;;;;5133076;27;20316;-58
2022/10/15 09:43:41;;;;;;;;;;;;;;;;;;5133157;27;19915;-59
2022/10/15 09:46:06;;;;;;;;;;;;;;;;;;5133386;27;19960;-57
2022/10/15 09:48:31;;;;;;;;;;;;;;;;;;5133036;27;19907;-58
2022/10/15 09:50:56;;;;;;;;;;;;;;;;;;5132555;27;19914;-58
2022/10/15 09:53:21;;;;;;;;;;;;;;;;;;5132941;27;19911;-58
2022/10/15 09:55:47;;;;;;;;;;;;;;;;;;5132872;27;19912;-58
2022/10/15 09:58:12;;;;;;;;;;;;;;;;;;5133044;27;19954;-58
2022/10/15 10:00:37;;;;;;;;;;;;;;;;;;5132558;27;19912;-58
2022/10/15 10:03:03;;;;;;;;;;;;;;;;;;5132732;27;19911;-58
2022/10/15 10:05:28;;;;;;;;;;;;;;;;;;5132993;27;19915;-58
2022/10/15 10:07:53;;;;;;;;;;;;;;;;;;5132298;27;19908;-59
2022/10/15 10:10:19;;;;;;;;;;;;;;;;;;5133035;27;19908;-58
2022/10/15 10:12:44;;;;;;;;;;;;;;;;;;5132282;27;20395;-58
2022/10/15 10:15:09;;;;;;;;;;;;;;;;;;5132645;27;19907;-58
2022/10/15 10:17:34;;;;;;;;;;;;;;;;;;5132661;27;20592;-58
2022/10/15 10:19:59;;;;;;;;;;;;;;;;;;5132645;27;19908;-59
2022/10/15 10:22:24;;;;;;;;;;;;;;;;;;5130690;27;19908;-61
2022/10/15 10:24:49;;;;;;;;;;;;;;;;;;5132677;27;19914;-58
2022/10/15 10:27:14;;;;;;;;;;;;;;;;;;5132444;27;20274;-59
2022/10/15 10:29:42;;;;;;;;;;;;;;;;;;5131986;27;19935;-59
2022/10/15 10:32:07;;;;;;;;;;;;;;;;;;5132509;27;19942;-59
2022/10/15 10:34:32;;;;;;;;;;;;;;;;;;5132329;27;19947;-59
2022/10/15 10:36:57;;;;;;;;;;;;;;;;;;5132521;27;19912;-59
2022/10/15 10:39:22;;;;;;;;;;;;;;;;;;5132604;27;19911;-59
2022/10/15 10:41:48;;;;;;;;;;;;;;;;;;5132123;28;19907;-59
2022/10/15 10:44:13;;;;;;;;;;;;;;;;;;5132173;28;19912;-59
2022/10/15 10:46:38;;;;;;;;;;;;;;;;;;5132323;28;19918;-59
2022/10/15 10:49:03;;;;;;;;;;;;;;;;;;5132636;28;19946;-59
2022/10/15 10:51:29;;;;;;;;;;;;;;;;;;5132018;28;19907;-59
2022/10/15 10:53:54;;;;;;;;;;;;;;;;;;5132500;28;19915;-59
2022/10/15 10:56:20;;;;;;;;;;;;;;;;;;5132277;28;19912;-58
2022/10/15 10:58:45;;;;;;;;;;;;;;;;;;5131915;28;19907;-59
2022/10/15 11:01:10;;;;;;;;;;;;;;;;;;5131894;28;20362;-59
2022/10/15 11:03:35;;;;;;;;;;;;;;;;;;5132046;28;19911;-58
2022/10/15 11:06:00;;;;;;;;;;;;;;;;;;5132167;28;19930;-59
2022/10/15 11:08:25;;;;;;;;;;;;;;;;;;5132052;28;19908;-58
2022/10/15 11:10:50;;;;;;;;;;;;;;;;;;5132055;28;19908;-58
2022/10/15 11:13:15;;;;;;;;;;;;;;;;;;5132144;28;19915;-58
2022/10/15 11:15:41;;;;;;;;;;;;;;;;;;5131971;28;19915;-59
2022/10/15 11:18:06;;;;;;;;;;;;;;;;;;5132104;28;20373;-59
2022/10/15 11:20:31;;;;;;;;;;;;;;;;;;5133870;27;19907;-59
2022/10/15 11:22:56;;;;;;;;;;;;;;;;;;5136133;27;19915;-59
2022/10/15 11:25:21;;;;;;;;;;;;;;;;;;5136261;27;20267;-59
2022/10/15 11:27:46;;;;;;;;;;;;;;;;;;5136055;27;20281;-59
2022/10/15 11:30:11;;;;;;;;;;;;;;;;;;5135339;27;19919;-59
2022/10/15 11:32:36;;;;;;;;;;;;;;;;;;5135337;27;20307;-59
2022/10/15 11:35:02;;;;;;;;;;;;;;;;;;5135745;27;20011;-59
2022/10/15 11:37:27;;;;;;;;;;;;;;;;;;5135949;27;19907;-59
2022/10/15 11:39:52;;;;;;;;;;;;;;;;;;5135685;27;19962;-58
2022/10/15 11:42:17;;;;;;;;;;;;;;;;;;5133402;27;19908;-59
2022/10/15 11:44:42;;;;;;;;;;;;;;;;;;5135284;27;20309;-60
2022/10/15 11:47:07;;;;;;;;;;;;;;;;;;5135525;27;19907;-59
2022/10/15 11:49:32;;;;;;;;;;;;;;;;;;5135651;27;19908;-58
2022/10/15 11:51:59;;;;;;;;;;;;;;;;;;5135247;27;19965;-58
2022/10/15 11:54:24;;;;;;;;;;;;;;;;;;5135620;27;19994;-59
2022/10/15 11:56:49;;;;;;;;;;;;;;;;;;5135052;27;20002;-59
2022/10/15 11:59:14;;;;;;;;;;;;;;;;;;5135220;27;19908;-58
2022/10/15 12:01:39;;;;;;;;;;;;;;;;;;5134808;27;19903;-58
2022/10/15 12:04:04;;;;;;;;;;;;;;;;;;5135031;27;19953;-58
2022/10/15 12:06:29;;;;;;;;;;;;;;;;;;5135098;27;20326;-59
2022/10/15 12:08:54;;;;;;;;;;;;;;;;;;5135084;27;19921;-59
2022/10/15 12:11:19;;;;;;;;;;;;;;;;;;5134880;27;19988;-59
2022/10/15 12:13:45;;;;;;;;;;;;;;;;;;5134616;27;19917;-59
2022/10/15 12:16:10;;;;;;;;;;;;;;;;;;5134729;27;19915;-58
2022/10/15 12:18:35;;;;;;;;;;;;;;;;;;5134860;27;20366;-59
2022/10/15 12:21:00;;;;;;;;;;;;;;;;;;5135136;27;19918;-57
2022/10/15 12:23:25;;;;;;;;;;;;;;;;;;5135057;27;19908;-58
2022/10/15 12:25:50;;;;;;;;;;;;;;;;;;5134599;27;20014;-57
2022/10/15 12:28:15;;;;;;;;;;;;;;;;;;5134900;27;20377;-58
2022/10/15 12:30:41;;;;;;;;;;;;;;;;;;5133677;27;20014;-58
2022/10/15 12:33:06;;;;;;;;;;;;;;;;;;5134285;27;19908;-58
2022/10/15 12:35:31;;;;;;;;;;;;;;;;;;5134570;27;19918;-58
2022/10/15 12:37:56;;;;;;;;;;;;;;;;;;5134587;27;19907;-59
2022/10/15 12:40:21;;;;;;;;;;;;;;;;;;5134538;27;19911;-59
2022/10/15 12:42:46;;;;;;;;;;;;;;;;;;5131469;27;20059;-58
2022/10/15 12:45:12;;;;;;;;;;;;;;;;;;5134392;27;19912;-59
2022/10/15 12:47:37;;;;;;;;;;;;;;;;;;5134547;27;19912;-58
2022/10/15 12:50:02;;;;;;;;;;;;;;;;;;5134191;27;19912;-59
2022/10/15 12:52:27;;;;;;;;;;;;;;;;;;5134132;27;20409;-59
2022/10/15 12:54:52;;;;;;;;;;;;;;;;;;5134280;27;19913;-58
2022/10/15 12:57:17;;;;;;;;;;;;;;;;;;5134110;27;19911;-60
2022/10/15 12:59:42;;;;;;;;;;;;;;;;;;5134228;27;19914;-59
2022/10/15 13:02:07;;;;;;;;;;;;;;;;;;5133735;27;19907;-56
2022/10/15 13:04:32;;;;;;;;;;;;;;;;;;5134029;27;19914;-56
2022/10/15 13:06:57;;;;;;;;;;;;;;;;;;5134004;27;19935;-57
2022/10/15 13:09:22;;;;;;;;;;;;;;;;;;5134022;27;19907;-58
2022/10/15 13:11:47;;;;;;;;;;;;;;;;;;5133766;27;19939;-58
2022/10/15 13:14:13;;;;;;;;;;;;;;;;;;5133892;27;19954;-58
2022/10/15 13:16:38;;;;;;;;;;;;;;;;;;5133544;27;19912;-59
2022/10/15 13:19:03;;;;;;;;;;;;;;;;;;5133699;27;19907;-60
2022/10/15 13:21:28;;;;;;;;;;;;;;;;;;5131881;27;20397;-58
2022/10/15 13:23:53;;;;;;;;;;;;;;;;;;5133983;27;20349;-60
2022/10/15 13:26:18;;;;;;;;;;;;;;;;;;5133947;27;19911;-59
2022/10/15 13:28:43;;;;;;;;;;;;;;;;;;5133302;27;19907;-59
2022/10/15 13:31:08;;;;;;;;;;;;;;;;;;5133088;27;20395;-58
2022/10/15 13:33:33;;;;;;;;;;;;;;;;;;5133668;27;20354;-58
2022/10/15 13:35:59;;;;;;;;;;;;;;;;;;5133286;27;20010;-59
2022/10/15 13:38:25;;;;;;;;;;;;;;;;;;5114598;27;19991;-59
2022/10/15 13:40:50;;;;;;;;;;;;;;;;;;5133399;27;20371;-59
2022/10/15 13:43:15;;;;;;;;;;;;;;;;;;5130023;27;20362;-58
2022/10/15 13:45:41;;;;;;;;;;;;;;;;;;5114941;27;19964;-58
2022/10/15 13:48:06;;;;;;;;;;;;;;;;;;5132974;27;20444;-62
2022/10/15 13:50:31;;;;;;;;;;;;;;;;;;5132606;27;19914;-59
2022/10/15 13:52:56;;;;;;;;;;;;;;;;;;5132737;27;19914;-59
2022/10/15 13:55:21;;;;;;;;;;;;;;;;;;5133172;27;19961;-59
2022/10/15 13:57:46;;;;;;;;;;;;;;;;;;5132955;27;19965;-58
2022/10/15 14:00:11;;;;;;;;;;;;;;;;;;5133090;27;19913;-58
2022/10/15 14:02:36;;;;;;;;;;;;;;;;;;5130396;27;19907;-59
2022/10/15 14:05:01;;;;;;;;;;;;;;;;;;5130892;27;19927;-58
2022/10/15 14:07:26;;;;;;;;;;;;;;;;;;5133019;27;19907;-57
2022/10/15 14:09:51;;;;;;;;;;;;;;;;;;5132760;27;20068;-58
2022/10/15 14:12:17;;;;;;;;;;;;;;;;;;5132212;27;19908;-58
2022/10/15 14:14:44;;;;;;;;;;;;;;;;;;5132389;27;19918;-59
2022/10/15 14:17:11;;;;;;;;;;;;;;;;;;5132705;27;20002;-58
2022/10/15 14:19:37;;;;;;;;;;;;;;;;;;5132564;27;19914;-58
2022/10/15 14:22:02;;;;;;;;;;;;;;;;;;5132352;27;20002;-58
2022/10/15 14:24:27;;;;;;;;;;;;;;;;;;5132753;27;19907;-58
2022/10/15 14:26:52;;;;;;;;;;;;;;;;;;5132492;27;19907;-58
2022/10/15 14:29:17;;;;;;;;;;;;;;;;;;5132452;27;19911;-59
2022/10/15 14:31:42;;;;;;;;;;;;;;;;;;5131960;27;20344;-58
2022/10/15 14:34:07;;;;;;;;;;;;;;;;;;5132112;27;19907;-59
2022/10/15 14:36:32;;;;;;;;;;;;;;;;;;5132388;27;20018;-58
2022/10/15 14:38:57;;;;;;;;;;;;;;;;;;5132250;27;19911;-57
2022/10/15 14:41:24;;;;;;;;;;;;;;;;;;5132300;28;20552;-59
2022/10/15 14:43:49;;;;;;;;;;;;;;;;;;5132025;28;19914;-59
2022/10/15 14:46:14;;;;;;;;;;;;;;;;;;5132396;28;20003;-58
2022/10/15 14:48:39;;;;;;;;;;;;;;;;;;5132367;28;19912;-60
2022/10/15 14:51:05;;;;;;;;;;;;;;;;;;5132097;28;19907;-59
2022/10/15 14:53:30;;;;;;;;;;;;;;;;;;5130595;27;19914;-58
2022/10/15 14:55:55;;;;;;;;;;;;;;;;;;5136221;27;20009;-58
2022/10/15 14:58:20;;;;;;;;;;;;;;;;;;5136710;27;19922;-58
2022/10/15 15:00:45;;;;;;;;;;;;;;;;;;5136293;27;19903;-59
2022/10/15 15:03:10;;;;;;;;;;;;;;;;;;5136105;27;20415;-59
2022/10/15 15:05:35;;;;;;;;;;;;;;;;;;5136314;27;19912;-57
2022/10/15 15:08:01;;;;;;;;;;;;;;;;;;5136229;27;19907;-59
2022/10/15 15:10:27;;;;;;;;;;;;;;;;;;5136579;27;20402;-60
2022/10/15 15:12:52;;;;;;;;;;;;;;;;;;5135531;27;20246;-58
2022/10/15 15:15:17;;;;;;;;;;;;;;;;;;5136192;27;19908;-57
2022/10/15 15:17:43;;;;;;;;;;;;;;;;;;5135932;27;19973;-59
2022/10/15 15:20:08;;;;;;;;;;;;;;;;;;5136031;27;20320;-61
2022/10/15 15:22:33;;;;;;;;;;;;;;;;;;5135991;27;19943;-58
2022/10/15 15:24:58;;;;;;;;;;;;;;;;;;5135745;27;19942;-58
2022/10/15 15:27:23;;;;;;;;;;;;;;;;;;5135901;27;20311;-58
2022/10/15 15:29:48;;;;;;;;;;;;;;;;;;5135607;27;19922;-58
2022/10/15 15:32:14;;;;;;;;;;;;;;;;;;5135717;27;19946;-58
2022/10/15 15:34:39;;;;;;;;;;;;;;;;;;5135951;27;19934;-59
2022/10/15 15:37:04;;;;;;;;;;;;;;;;;;5135511;27;19919;-58
2022/10/15 15:39:30;;;;;;;;;;;;;;;;;;5135673;27;20365;-58
2022/10/15 15:41:55;;;;;;;;;;;;;;;;;;5135662;27;19908;-60
2022/10/15 15:44:20;;;;;;;;;;;;;;;;;;5133597;27;19911;-59
2022/10/15 15:46:49;;;;;;;;;;;;;;;;;;5135372;27;19903;-58
2022/10/15 15:49:14;;;;;;;;;;;;;;;;;;5135272;27;19912;-59
2022/10/15 15:51:39;;;;;;;;;;;;;;;;;;5135487;27;19907;-59
2022/10/15 15:54:06;;;;;;;;;;;;;;;;;;5134875;27;19911;-59
2022/10/15 15:56:31;;;;;;;;;;;;;;;;;;5135410;27;19915;-59
2022/10/15 15:58:56;;;;;;;;;;;;;;;;;;5134940;27;19976;-59
2022/10/15 16:01:22;;;;;;;;;;;;;;;;;;5135459;27;20358;-59
2022/10/15 16:03:47;;;;;;;;;;;;;;;;;;5135132;27;19907;-58
2022/10/15 16:06:12;;;;;;;;;;;;;;;;;;5134559;27;19911;-58
2022/10/15 16:08:37;;;;;;;;;;;;;;;;;;5135069;27;20247;-58
2022/10/15 16:11:03;;;;;;;;;;;;;;;;;;5135157;27;20398;-59
2022/10/15 16:13:28;;;;;;;;;;;;;;;;;;5134815;27;19931;-58
2022/10/15 16:15:53;;;;;;;;;;;;;;;;;;5134999;27;20300;-58
2022/10/15 16:18:18;;;;;;;;;;;;;;;;;;5134989;27;19933;-59
2022/10/15 16:20:43;;;;;;;;;;;;;;;;;;5135129;27;19912;-58
2022/10/15 16:23:08;;;;;;;;;;;;;;;;;;5134503;27;19958;-59
2022/10/15 16:25:33;;;;;;;;;;;;;;;;;;5134898;27;20442;-59
2022/10/15 16:28:00;;;;;;;;;;;;;;;;;;5134615;27;19918;-59
2022/10/15 16:30:25;;;;;;;;;;;;;;;;;;5134556;27;19915;-59